createdAt,value
2019-04-12T00:00:46.819Z,10.93
2019-04-12T00:03:17.625Z,10.93
2019-04-12T00:05:48.424Z,10.96
2019-04-12T00:08:19.402Z,11.01
2019-04-12T00:10:49.939Z,10.99
2019-04-12T00:13:20.580Z,10.96
2019-04-12T00:15:52.697Z,10.94
2019-04-12T00:18:23.497Z,10.82
2019-04-12T00:20:54.013Z,10.84
2019-04-12T00:23:24.741Z,10.84
2019-04-12T00:25:55.508Z,10.99
2019-04-12T00:28:26.228Z,10.98
2019-04-12T00:30:56.868Z,11.03
2019-04-12T00:33:28.568Z,11.02
2019-04-12T00:35:59.137Z,11.01
2019-04-12T00:38:29.810Z,10.96
2019-04-12T00:41:02.360Z,11.02
2019-04-12T00:43:34.322Z,11.01
2019-04-12T00:46:06.259Z,11.01
2019-04-12T00:48:38.567Z,11.04
2019-04-12T00:51:11.974Z,10.94
2019-04-12T00:53:44.661Z,11.00
2019-04-12T00:56:16.504Z,10.97
2019-04-12T00:58:47.482Z,10.99
2019-04-12T01:01:42.833Z,10.99
2019-04-12T01:04:21.885Z,10.99
2019-04-12T01:06:52.982Z,11.02
2019-04-12T01:09:23.349Z,11.05
2019-04-12T01:11:55.340Z,11.07
2019-04-12T01:14:28.259Z,11.07
2019-04-12T01:17:00.753Z,11.13
2019-04-12T01:19:33.500Z,11.21
2019-04-12T01:22:08.864Z,11.17
2019-04-12T01:24:41.074Z,11.12
2019-04-12T01:27:10.664Z,11.12
2019-04-12T01:29:41.513Z,11.14
2019-04-12T01:32:13.416Z,11.17
2019-04-12T01:34:43.981Z,11.17
2019-04-12T01:37:14.731Z,11.16
2019-04-12T01:39:45.382Z,11.30
2019-04-12T01:42:15.791Z,11.34
2019-04-12T01:44:46.341Z,11.38
2019-04-12T01:47:17.018Z,11.41
2019-04-12T01:49:47.509Z,11.37
2019-04-12T01:52:19.435Z,11.39
2019-04-12T01:54:50.030Z,11.42
2019-04-12T01:57:20.508Z,11.42
2019-04-12T01:59:51.379Z,11.46
2019-04-12T02:02:22.469Z,11.46
2019-04-12T02:04:52.937Z,11.44
2019-04-12T02:07:23.520Z,11.45
2019-04-12T02:09:54.565Z,11.47
2019-04-12T02:12:26.568Z,11.52
2019-04-12T02:14:57.264Z,11.51
2019-04-12T02:17:28.088Z,11.45
2019-04-12T02:19:58.857Z,11.37
2019-04-12T02:22:29.795Z,11.30
2019-04-12T02:25:00.506Z,11.25
2019-04-12T02:27:31.281Z,11.31
2019-04-12T02:30:04.606Z,11.22
2019-04-12T02:32:57.125Z,11.23
2019-04-12T02:35:52.968Z,11.24
2019-04-12T02:38:24.835Z,11.22
2019-04-12T02:40:55.954Z,11.15
2019-04-12T02:43:28.945Z,11.13
2019-04-12T02:46:05.558Z,11.15
2019-04-12T02:48:47.631Z,11.15
2019-04-12T02:51:35.353Z,11.14
2019-04-12T02:54:25.768Z,11.15
2019-04-12T02:57:19.650Z,11.10
2019-04-12T02:59:52.207Z,11.15
2019-04-12T03:02:25.234Z,11.14
2019-04-12T03:04:56.485Z,11.20
2019-04-12T03:07:27.230Z,11.23
2019-04-12T03:09:59.535Z,11.21
2019-04-12T03:12:32.758Z,11.17
2019-04-12T03:15:04.839Z,11.13
2019-04-12T03:17:35.892Z,11.09
2019-04-12T03:20:07.740Z,11.20
2019-04-12T03:22:38.281Z,11.21
2019-04-12T03:25:09.060Z,11.30
2019-04-12T03:27:40.731Z,11.41
2019-04-12T03:30:11.863Z,11.48
2019-04-12T03:32:42.810Z,11.55
2019-04-12T03:35:15.065Z,11.60
2019-04-12T03:37:45.719Z,11.59
2019-04-12T03:40:16.702Z,11.64
2019-04-12T03:42:47.582Z,11.63
2019-04-12T03:45:18.620Z,11.59
2019-04-12T03:47:50.034Z,11.65
2019-04-12T03:50:21.132Z,11.66
2019-04-12T03:52:52.024Z,11.67
2019-04-12T03:55:22.985Z,11.69
2019-04-12T03:57:53.933Z,11.67
2019-04-12T04:00:25.881Z,11.69
2019-04-12T04:03:16.659Z,11.68
2019-04-12T04:05:47.589Z,11.70
2019-04-12T04:08:18.489Z,11.63
2019-04-12T04:10:49.306Z,11.66
2019-04-12T04:13:20.011Z,11.68
2019-04-12T04:15:52.031Z,11.68
2019-04-12T04:18:27.631Z,11.73
2019-04-12T04:21:04.763Z,11.80
2019-04-12T04:23:59.800Z,11.86
2019-04-12T04:27:04.735Z,11.91
2019-04-12T04:29:59.861Z,11.91
2019-04-12T04:32:47.874Z,11.98
2019-04-12T04:35:38.526Z,12.03
2019-04-12T04:38:18.340Z,12.09
2019-04-12T04:40:52.158Z,12.05
2019-04-12T04:43:23.123Z,12.12
2019-04-12T04:45:54.075Z,12.04
2019-04-12T04:48:25.511Z,11.92
2019-04-12T04:50:56.492Z,11.92
2019-04-12T04:53:27.891Z,12.08
2019-04-12T04:55:59.263Z,11.98
2019-04-12T04:58:30.514Z,12.18
2019-04-12T05:01:01.147Z,12.31
2019-04-12T05:03:31.996Z,12.41
2019-04-12T05:06:02.435Z,12.53
2019-04-12T05:08:33.183Z,12.66
2019-04-12T05:11:05.185Z,12.70
2019-04-12T05:13:36.320Z,12.67
2019-04-12T05:16:07.578Z,12.79
2019-04-12T05:18:38.438Z,12.95
2019-04-12T05:21:09.534Z,13.10
2019-04-12T05:23:40.150Z,13.34
2019-04-12T05:26:11.673Z,13.60
2019-04-12T05:28:42.483Z,13.82
2019-04-12T05:31:13.383Z,13.78
2019-04-12T05:33:44.213Z,14.00
2019-04-12T05:36:15.486Z,14.37
2019-04-12T05:38:46.071Z,14.57
2019-04-12T05:41:17.048Z,14.74
2019-04-12T05:43:50.444Z,15.13
2019-04-12T05:46:38.896Z,15.83
2019-04-12T05:49:28.389Z,17.79
2019-04-12T05:51:59.538Z,18.87
2019-04-12T05:54:30.341Z,18.71
2019-04-12T05:57:01.328Z,19.49
2019-04-12T05:59:35.637Z,19.90
2019-04-12T06:02:29.720Z,20.40
2019-04-12T06:05:00.362Z,21.80
2019-04-12T06:07:30.983Z,21.17
2019-04-12T06:10:01.749Z,19.83
2019-04-12T06:12:33.348Z,18.60
2019-04-12T06:15:04.253Z,17.71
2019-04-12T06:17:36.643Z,17.02
2019-04-12T06:20:25.405Z,16.15
2019-04-12T06:22:57.330Z,15.57
2019-04-12T06:25:32.524Z,15.66
2019-04-12T06:28:03.685Z,15.48
2019-04-12T06:30:37.555Z,15.03
2019-04-12T06:33:09.033Z,14.72
2019-04-12T06:35:39.725Z,14.57
2019-04-12T06:38:10.552Z,14.26
2019-04-12T06:40:41.113Z,14.09
2019-04-12T06:43:12.109Z,14.32
2019-04-12T06:45:43.235Z,14.19
2019-04-12T06:48:14.233Z,13.95
2019-04-12T06:50:51.636Z,14.08
2019-04-12T06:53:22.626Z,14.08
2019-04-12T06:56:06.345Z,14.05
2019-04-12T06:58:37.178Z,14.07
2019-04-12T07:01:20.651Z,14.08
2019-04-12T07:04:03.642Z,14.04
2019-04-12T07:06:34.239Z,13.98
2019-04-12T07:09:07.005Z,13.97
2019-04-12T07:11:37.651Z,13.77
2019-04-12T07:14:08.307Z,13.81
2019-04-12T07:16:39.059Z,13.99
2019-04-12T07:19:09.835Z,14.18
2019-04-12T07:21:40.635Z,14.30
2019-04-12T07:24:11.118Z,14.47
2019-04-12T07:26:41.731Z,14.59
2019-04-12T07:29:12.150Z,14.76
2019-04-12T07:31:42.995Z,15.07
2019-04-12T07:34:13.702Z,15.32
2019-04-12T07:36:44.433Z,15.48
2019-04-12T07:39:15.617Z,15.05
2019-04-12T07:41:48.005Z,15.18
2019-04-12T07:44:18.712Z,15.40
2019-04-12T07:46:49.492Z,16.15
2019-04-12T07:49:20.387Z,16.31
2019-04-12T07:52:06.142Z,15.91
2019-04-12T07:55:01.507Z,16.09
2019-04-12T07:57:46.811Z,15.90
2019-04-12T08:00:29.073Z,16.05
2019-04-12T08:03:24.706Z,15.94
2019-04-12T08:06:02.540Z,15.35
2019-04-12T08:08:34.027Z,15.36
2019-04-12T08:11:04.582Z,15.71
2019-04-12T08:13:35.379Z,16.06
2019-04-12T08:16:06.125Z,16.41
2019-04-12T08:18:36.780Z,16.50
2019-04-12T08:21:07.443Z,16.82
2019-04-12T08:23:38.401Z,16.76
2019-04-12T08:26:08.862Z,16.90
2019-04-12T08:28:39.431Z,16.62
2019-04-12T08:31:10.256Z,16.74
2019-04-12T08:33:40.822Z,16.81
2019-04-12T08:36:11.614Z,16.99
2019-04-12T08:38:42.228Z,17.69
2019-04-12T08:41:12.805Z,17.87
2019-04-12T08:43:45.156Z,18.18
2019-04-12T08:46:18.962Z,18.08
2019-04-12T08:48:48.666Z,18.51
2019-04-12T08:51:22.710Z,18.61
2019-04-12T08:53:52.200Z,17.67
2019-04-12T08:56:22.616Z,17.86
2019-04-12T08:58:53.024Z,18.08
2019-04-12T09:01:23.434Z,18.37
2019-04-12T09:03:54.460Z,18.23
2019-04-12T09:06:24.985Z,18.03
2019-04-12T09:09:13.931Z,17.99
2019-04-12T09:11:44.819Z,17.94
2019-04-12T09:14:15.377Z,17.66
2019-04-12T09:16:46.753Z,17.42
2019-04-12T09:19:45.343Z,17.29
2019-04-12T09:22:53.047Z,17.17
2019-04-12T09:25:46.365Z,17.72
2019-04-12T09:28:24.632Z,17.17
2019-04-12T09:30:49.296Z,17.70
2019-04-12T09:33:20.138Z,17.60
2019-04-12T09:35:51.438Z,17.95
2019-04-12T09:38:22.151Z,17.57
2019-04-12T09:40:56.108Z,17.74
2019-04-12T09:43:25.623Z,17.78
2019-04-12T09:45:56.180Z,17.62
2019-04-12T09:48:26.954Z,17.77
2019-04-12T09:50:57.312Z,17.42
2019-04-12T09:53:27.676Z,17.01
2019-04-12T09:55:58.115Z,16.97
2019-04-12T09:58:37.280Z,16.72
2019-04-12T10:01:01.653Z,17.03
2019-04-12T10:03:32.256Z,17.36
2019-04-12T10:06:03.881Z,17.28
2019-04-12T10:08:34.711Z,17.47
2019-04-12T10:11:05.606Z,17.22
2019-04-12T10:13:35.855Z,17.32
2019-04-12T10:16:06.542Z,17.54
2019-04-12T10:18:36.878Z,17.45
2019-04-12T10:21:07.196Z,17.79
2019-04-12T10:23:37.661Z,18.23
2019-04-12T10:26:08.072Z,17.79
2019-04-12T10:28:49.599Z,17.75
2019-04-12T10:31:10.863Z,17.70
2019-04-12T10:33:41.448Z,17.87
2019-04-12T10:36:11.891Z,17.87
2019-04-12T10:38:50.330Z,18.08
2019-04-12T10:41:20.948Z,18.21
2019-04-12T10:43:52.825Z,18.28
2019-04-12T10:46:25.094Z,18.40
2019-04-12T10:49:15.471Z,17.56
2019-04-12T10:52:04.731Z,17.87
2019-04-12T10:54:52.650Z,18.05
2019-04-12T10:57:23.549Z,18.26
2019-04-12T10:59:53.939Z,18.04
2019-04-12T11:02:24.449Z,17.89
2019-04-12T11:04:54.954Z,17.63
2019-04-12T11:07:25.428Z,17.32
2019-04-12T11:09:55.660Z,17.67
2019-04-12T11:12:26.140Z,17.85
2019-04-12T11:14:57.246Z,17.80
2019-04-12T11:17:28.017Z,17.90
2019-04-12T11:19:58.467Z,17.79
2019-04-12T11:22:28.910Z,17.82
2019-04-12T11:25:00.823Z,17.54
2019-04-12T11:27:31.128Z,17.43
2019-04-12T11:30:02.043Z,17.18
2019-04-12T11:32:32.767Z,17.15
2019-04-12T11:35:03.349Z,17.46
2019-04-12T11:37:33.673Z,17.61
2019-04-12T11:40:04.592Z,17.58
2019-04-12T11:42:35.273Z,17.54
2019-04-12T11:45:06.235Z,17.25
2019-04-12T11:47:36.973Z,17.37
2019-04-12T11:50:09.012Z,17.26
2019-04-12T11:52:46.736Z,17.32
2019-04-12T11:55:17.353Z,17.04
2019-04-12T11:57:48.108Z,16.61
2019-04-12T12:00:26.337Z,16.88
2019-04-12T12:03:18.648Z,17.02
2019-04-12T12:05:58.115Z,17.13
2019-04-12T12:08:50.575Z,16.75
2019-04-12T12:11:32.062Z,16.67
2019-04-12T12:14:16.644Z,16.60
2019-04-12T12:16:53.513Z,16.35
2019-04-12T12:19:24.050Z,16.39
2019-04-12T12:21:54.613Z,16.45
2019-04-12T12:24:25.138Z,16.64
2019-04-12T12:26:55.504Z,16.77
2019-04-12T12:29:25.978Z,16.92
2019-04-12T12:31:56.554Z,16.98
2019-04-12T12:34:27.201Z,16.78
2019-04-12T12:36:58.591Z,16.49
2019-04-12T12:39:29.426Z,16.50
2019-04-12T12:42:00.224Z,16.36
2019-04-12T12:44:33.219Z,16.39
2019-04-12T12:47:04.565Z,15.70
2019-04-12T12:49:35.356Z,15.33
2019-04-12T12:52:06.037Z,15.36
2019-04-12T12:54:36.788Z,15.43
2019-04-12T12:57:07.243Z,15.45
2019-04-12T12:59:37.813Z,15.39
2019-04-12T13:02:08.486Z,15.73
2019-04-12T13:04:38.938Z,16.01
2019-04-12T13:07:09.104Z,16.15
2019-04-12T13:09:39.724Z,16.07
2019-04-12T13:12:10.482Z,15.82
2019-04-12T13:14:40.916Z,15.42
2019-04-12T13:17:11.419Z,15.52
2019-04-12T13:19:41.969Z,15.46
2019-04-12T13:22:12.300Z,15.46
2019-04-12T13:24:44.234Z,15.72
2019-04-12T13:27:14.971Z,15.56
2019-04-12T13:29:45.726Z,15.43
2019-04-12T13:32:33.999Z,15.64
2019-04-12T13:35:32.877Z,15.76
2019-04-12T13:38:17.827Z,15.96
2019-04-12T13:40:49.256Z,16.03
2019-04-12T13:43:22.370Z,16.08
2019-04-12T13:45:56.059Z,16.06
2019-04-12T13:48:27.436Z,15.70
2019-04-12T13:50:58.452Z,15.75
2019-04-12T13:53:29.051Z,15.42
2019-04-12T13:56:00.240Z,15.04
2019-04-12T13:58:30.597Z,15.29
2019-04-12T14:01:01.440Z,15.41
2019-04-12T14:03:32.331Z,15.32
2019-04-12T14:06:05.299Z,15.39
2019-04-12T14:08:36.589Z,15.49
2019-04-12T14:11:07.136Z,15.53
2019-04-12T14:13:38.121Z,15.15
2019-04-12T14:16:08.938Z,14.86
2019-04-12T14:18:39.462Z,14.70
2019-04-12T14:21:10.266Z,14.70
2019-04-12T14:23:41.245Z,14.58
2019-04-12T14:26:12.097Z,14.41
2019-04-12T14:28:42.721Z,14.52
2019-04-12T14:31:20.651Z,14.52
2019-04-12T14:34:06.545Z,14.10
2019-04-12T14:36:54.008Z,14.09
2019-04-12T14:39:24.493Z,14.03
2019-04-12T14:42:00.672Z,13.97
2019-04-12T14:44:45.692Z,13.99
2019-04-12T14:47:45.319Z,13.89
2019-04-12T14:50:16.551Z,13.70
2019-04-12T14:52:47.106Z,13.66
2019-04-12T14:55:18.002Z,13.60
2019-04-12T14:57:48.312Z,13.34
2019-04-12T15:00:20.728Z,13.40
2019-04-12T15:02:51.240Z,13.41
2019-04-12T15:05:21.829Z,13.22
2019-04-12T15:07:53.562Z,13.27
2019-04-12T15:10:24.298Z,13.09
2019-04-12T15:12:54.611Z,13.14
2019-04-12T15:15:25.184Z,12.97
2019-04-12T15:17:56.401Z,12.95
2019-04-12T15:20:26.979Z,12.88
2019-04-12T15:22:57.577Z,12.86
2019-04-12T15:25:28.255Z,12.80
2019-04-12T15:27:58.669Z,12.84
2019-04-12T15:30:29.602Z,12.80
2019-04-12T15:32:59.936Z,12.76
2019-04-12T15:35:30.185Z,12.56
2019-04-12T15:38:00.736Z,12.51
2019-04-12T15:40:31.226Z,12.47
2019-04-12T15:43:01.622Z,12.38
2019-04-12T15:45:32.574Z,12.30
2019-04-12T15:48:04.412Z,12.31
2019-04-12T15:50:34.662Z,12.31
2019-04-12T15:53:05.625Z,12.31
2019-04-12T15:55:36.022Z,12.16
2019-04-12T15:58:06.928Z,12.26
2019-04-12T16:00:52.280Z,12.30
2019-04-12T16:03:24.996Z,12.26
2019-04-12T16:05:56.338Z,12.19
2019-04-12T16:08:29.638Z,12.18
2019-04-12T16:11:05.749Z,11.97
2019-04-12T16:13:58.488Z,12.04
2019-04-12T16:16:57.522Z,11.99
2019-04-12T16:19:27.922Z,11.94
2019-04-12T16:21:58.469Z,12.00
2019-04-12T16:24:28.886Z,11.89
2019-04-12T16:27:00.522Z,11.88
2019-04-12T16:29:40.883Z,11.75
2019-04-12T16:32:39.698Z,11.82
2019-04-12T16:35:48.543Z,11.83
2019-04-12T16:38:22.950Z,11.76
2019-04-12T16:40:53.463Z,11.67
2019-04-12T16:43:24.121Z,11.60
2019-04-12T16:45:55.217Z,11.52
2019-04-12T16:48:26.067Z,11.47
2019-04-12T16:50:56.901Z,11.43
2019-04-12T16:53:28.031Z,11.44
2019-04-12T16:55:59.091Z,11.45
2019-04-12T16:58:29.502Z,11.43
2019-04-12T17:01:00.062Z,11.42
2019-04-12T17:03:31.833Z,11.48
2019-04-12T17:06:02.440Z,11.46
2019-04-12T17:08:33.148Z,11.48
2019-04-12T17:11:04.753Z,11.47
2019-04-12T17:13:35.037Z,11.44
2019-04-12T17:16:05.772Z,11.41
2019-04-12T17:18:36.597Z,11.46
2019-04-12T17:21:07.094Z,11.48
2019-04-12T17:23:38.073Z,11.47
2019-04-12T17:26:08.723Z,11.41
2019-04-12T17:28:39.306Z,11.39
2019-04-12T17:31:09.775Z,11.38
2019-04-12T17:33:40.522Z,11.25
2019-04-12T17:36:11.082Z,11.20
2019-04-12T17:38:41.266Z,11.18
2019-04-12T17:41:11.911Z,11.20
2019-04-12T17:43:43.144Z,11.12
2019-04-12T17:46:13.693Z,11.10
2019-04-12T17:49:18.792Z,11.14
2019-04-12T17:51:54.134Z,11.19
2019-04-12T17:54:42.213Z,11.22
2019-04-12T17:57:14.581Z,11.21
2019-04-12T17:59:45.164Z,11.25
2019-04-12T18:02:34.568Z,11.24
2019-04-12T18:05:07.538Z,11.31
2019-04-12T18:07:38.919Z,11.42
2019-04-12T18:10:10.806Z,11.31
2019-04-12T18:12:41.223Z,11.36
2019-04-12T18:15:14.950Z,11.29
2019-04-12T18:17:45.648Z,11.26
2019-04-12T18:20:16.656Z,11.23
2019-04-12T18:22:47.723Z,11.15
2019-04-12T18:25:18.701Z,11.16
2019-04-12T18:27:49.341Z,11.06
2019-04-12T18:30:20.334Z,10.99
2019-04-12T18:32:50.957Z,10.96
2019-04-12T18:35:21.311Z,10.92
2019-04-12T18:37:52.031Z,10.88
2019-04-12T18:40:23.041Z,10.87
2019-04-12T18:42:53.693Z,10.89
2019-04-12T18:45:24.568Z,10.95
2019-04-12T18:47:55.211Z,10.90
2019-04-12T18:50:26.153Z,10.91
2019-04-12T18:52:57.754Z,10.91
2019-04-12T18:55:28.860Z,10.95
2019-04-12T18:57:59.340Z,10.92
2019-04-12T19:00:30.328Z,10.96
2019-04-12T19:03:01.419Z,10.96
2019-04-12T19:05:31.876Z,11.02
2019-04-12T19:08:02.879Z,11.01
2019-04-12T19:10:33.694Z,11.01
2019-04-12T19:13:04.405Z,11.07
2019-04-12T19:15:35.220Z,11.08
2019-04-12T19:18:06.873Z,11.07
2019-04-12T19:20:37.751Z,11.13
2019-04-12T19:23:08.521Z,11.07
2019-04-12T19:25:39.292Z,11.10
2019-04-12T19:28:10.079Z,11.05
2019-04-12T19:30:43.381Z,11.01
2019-04-12T19:33:24.634Z,10.96
2019-04-12T19:36:17.501Z,10.98
2019-04-12T19:39:05.949Z,10.95
2019-04-12T19:41:39.537Z,10.92
2019-04-12T19:44:10.463Z,10.91
2019-04-12T19:46:41.229Z,10.91
2019-04-12T19:49:11.993Z,10.94
2019-04-12T19:51:42.899Z,10.96
2019-04-12T19:54:13.733Z,10.95
2019-04-12T19:56:44.491Z,10.97
2019-04-12T19:59:15.000Z,10.95
2019-04-12T20:01:45.569Z,10.93
2019-04-12T20:04:16.295Z,10.85
2019-04-12T20:06:50.213Z,10.90
2019-04-12T20:09:20.677Z,10.88
2019-04-12T20:11:51.760Z,10.89
2019-04-12T20:14:22.369Z,10.89
2019-04-12T20:16:53.076Z,10.89
2019-04-12T20:19:23.789Z,10.90
2019-04-12T20:21:54.561Z,10.92
2019-04-12T20:24:25.438Z,10.91
2019-04-12T20:26:56.916Z,10.97
2019-04-12T20:29:27.514Z,10.92
2019-04-12T20:31:58.181Z,10.98
2019-04-12T20:34:29.024Z,10.94
2019-04-12T20:36:59.946Z,10.89
2019-04-12T20:39:30.694Z,10.86
2019-04-12T20:42:03.832Z,10.92
2019-04-12T20:44:34.341Z,10.90
2019-04-12T20:47:05.274Z,10.90
2019-04-12T20:49:36.400Z,10.93
2019-04-12T20:52:07.155Z,10.91
2019-04-12T20:54:37.990Z,10.93
2019-04-12T20:57:09.314Z,10.89
2019-04-12T20:59:39.954Z,10.92
2019-04-12T21:02:10.941Z,10.93
2019-04-12T21:04:41.732Z,10.96
2019-04-12T21:07:13.702Z,11.01
2019-04-12T21:09:47.916Z,10.99
2019-04-12T21:12:19.279Z,10.98
2019-04-12T21:14:49.826Z,10.97
2019-04-12T21:17:21.517Z,10.97
2019-04-12T21:19:52.315Z,11.00
2019-04-12T21:22:23.032Z,10.98
2019-04-12T21:24:53.866Z,11.01
2019-04-12T21:27:24.730Z,11.03
2019-04-12T21:29:55.372Z,11.07
2019-04-12T21:32:26.395Z,11.03
2019-04-12T21:34:57.176Z,11.07
2019-04-12T21:37:27.861Z,11.14
2019-04-12T21:39:58.814Z,11.11
2019-04-12T21:42:29.839Z,11.11
2019-04-12T21:45:00.465Z,11.17
2019-04-12T21:47:31.022Z,11.19
2019-04-12T21:50:01.494Z,11.09
2019-04-12T21:52:32.094Z,11.13
2019-04-12T21:55:02.924Z,11.12
2019-04-12T21:57:36.906Z,11.14
2019-04-12T22:00:11.902Z,11.10
2019-04-12T22:02:43.647Z,11.11
2019-04-12T22:05:14.659Z,11.15
2019-04-12T22:07:45.966Z,11.15
2019-04-12T22:10:18.016Z,11.14
2019-04-12T22:12:48.504Z,11.15
2019-04-12T22:15:19.869Z,11.10
2019-04-12T22:17:50.270Z,11.12
2019-04-12T22:20:20.826Z,11.15
2019-04-12T22:22:51.492Z,11.06
2019-04-12T22:25:21.993Z,11.07
2019-04-12T22:27:55.594Z,11.09
2019-04-12T22:30:26.452Z,11.16
2019-04-12T22:32:57.136Z,11.14
2019-04-12T22:35:27.873Z,11.18
2019-04-12T22:37:58.760Z,11.15
2019-04-12T22:40:29.694Z,11.08
2019-04-12T22:43:02.334Z,11.08
2019-04-12T22:45:33.846Z,11.16
2019-04-12T22:48:05.043Z,11.10
2019-04-12T22:50:35.813Z,11.12
2019-04-12T22:53:06.904Z,11.13
2019-04-12T22:55:37.462Z,11.15
2019-04-12T22:58:08.175Z,11.16
2019-04-12T23:00:39.334Z,11.19
2019-04-12T23:03:09.956Z,11.18
2019-04-12T23:05:43.009Z,11.18
2019-04-12T23:08:14.116Z,11.14
2019-04-12T23:10:46.108Z,11.19
2019-04-12T23:13:40.954Z,11.19
2019-04-12T23:16:11.929Z,11.18
2019-04-12T23:18:42.851Z,11.23
2019-04-12T23:21:13.721Z,11.17
2019-04-12T23:23:44.435Z,11.21
2019-04-12T23:26:15.163Z,11.18
2019-04-12T23:28:46.461Z,11.20
2019-04-12T23:31:24.586Z,11.19
2019-04-12T23:34:03.509Z,11.21
2019-04-12T23:36:34.073Z,11.16
2019-04-12T23:39:05.567Z,11.12
2019-04-12T23:41:36.180Z,11.11
2019-04-12T23:44:07.151Z,11.09
2019-04-12T23:46:38.090Z,11.10
2019-04-12T23:49:08.843Z,11.11
2019-04-12T23:51:39.888Z,11.16
2019-04-12T23:54:10.670Z,11.14
2019-04-12T23:56:41.466Z,11.20
2019-04-12T23:59:12.069Z,11.18
